sensor_id;sensor_type;location;lat;lon;timestamp;P1;durP1;ratioP1;P2;durP2;ratioP2
46897;SDS011;32646;50.958;6.258;2023-01-13T00:02:25;1.05;;;0.40;;
46897;SDS011;32646;50.958;6.258;2023-01-13T00:04:51;1.58;;;0.30;;
46897;SDS011;32646;50.958;6.258;2023-01-13T00:07:18;0.65;;;0.30;;
46897;SDS011;32646;50.958;6.258;2023-01-13T00:09:45;1.33;;;0.30;;
46897;SDS011;32646;50.958;6.258;2023-01-13T00:12:11;0.70;;;0.30;;
46897;SDS011;32646;50.958;6.258;2023-01-13T00:14:38;0.90;;;0.30;;
46897;SDS011;32646;50.958;6.258;2023-01-13T00:17:04;1.08;;;0.30;;
46897;SDS011;32646;50.958;6.258;2023-01-13T00:19:32;0.73;;;0.30;;
46897;SDS011;32646;50.958;6.258;2023-01-13T00:21:58;0.70;;;0.30;;
46897;SDS011;32646;50.958;6.258;2023-01-13T00:24:25;0.73;;;0.30;;
46897;SDS011;32646;50.958;6.258;2023-01-13T00:26:51;0.75;;;0.40;;
46897;SDS011;32646;50.958;6.258;2023-01-13T00:29:18;1.33;;;0.52;;
46897;SDS011;32646;50.958;6.258;2023-01-13T00:31:44;1.30;;;0.50;;
46897;SDS011;32646;50.958;6.258;2023-01-13T00:34:11;1.98;;;0.60;;
46897;SDS011;32646;50.958;6.258;2023-01-13T00:36:37;2.30;;;0.93;;
46897;SDS011;32646;50.958;6.258;2023-01-13T00:39:04;1.05;;;0.45;;
46897;SDS011;32646;50.958;6.258;2023-01-13T00:41:31;1.25;;;0.50;;
46897;SDS011;32646;50.958;6.258;2023-01-13T00:43:57;2.40;;;0.60;;
46897;SDS011;32646;50.958;6.258;2023-01-13T00:46:24;0.70;;;0.32;;
46897;SDS011;32646;50.958;6.258;2023-01-13T00:48:50;2.03;;;0.50;;
46897;SDS011;32646;50.958;6.258;2023-01-13T00:51:18;1.77;;;0.40;;
46897;SDS011;32646;50.958;6.258;2023-01-13T00:53:47;3.60;;;0.52;;
46897;SDS011;32646;50.958;6.258;2023-01-13T00:56:16;2.35;;;0.55;;
46897;SDS011;32646;50.958;6.258;2023-01-13T00:58:52;0.25;;;0.17;;
46897;SDS011;32646;50.958;6.258;2023-01-13T01:01:20;0.32;;;0.20;;
46897;SDS011;32646;50.958;6.258;2023-01-13T01:03:51;2.00;;;0.60;;
46897;SDS011;32646;50.958;6.258;2023-01-13T01:06:22;2.53;;;0.55;;
46897;SDS011;32646;50.958;6.258;2023-01-13T01:08:51;2.70;;;0.60;;
46897;SDS011;32646;50.958;6.258;2023-01-13T01:11:19;3.33;;;0.40;;
46897;SDS011;32646;50.958;6.258;2023-01-13T01:13:48;2.58;;;0.50;;
46897;SDS011;32646;50.958;6.258;2023-01-13T01:16:16;1.95;;;0.55;;
46897;SDS011;32646;50.958;6.258;2023-01-13T01:18:45;3.78;;;0.30;;
46897;SDS011;32646;50.958;6.258;2023-01-13T01:21:13;2.70;;;0.52;;
46897;SDS011;32646;50.958;6.258;2023-01-13T01:23:40;1.73;;;0.70;;
46897;SDS011;32646;50.958;6.258;2023-01-13T01:26:14;1.75;;;0.75;;
46897;SDS011;32646;50.958;6.258;2023-01-13T01:28:43;0.60;;;0.20;;
46897;SDS011;32646;50.958;6.258;2023-01-13T01:31:14;3.13;;;0.50;;
46897;SDS011;32646;50.958;6.258;2023-01-13T01:34:07;0.32;;;0.17;;
46897;SDS011;32646;50.958;6.258;2023-01-13T01:36:33;1.13;;;0.10;;
46897;SDS011;32646;50.958;6.258;2023-01-13T01:39:00;4.63;;;0.82;;
46897;SDS011;32646;50.958;6.258;2023-01-13T01:41:28;3.53;;;1.05;;
46897;SDS011;32646;50.958;6.258;2023-01-13T01:46:52;2.08;;;0.30;;
46897;SDS011;32646;50.958;6.258;2023-01-13T01:49:20;1.70;;;0.50;;
46897;SDS011;32646;50.958;6.258;2023-01-13T01:51:52;1.45;;;0.32;;
46897;SDS011;32646;50.958;6.258;2023-01-13T01:54:22;2.58;;;0.60;;
46897;SDS011;32646;50.958;6.258;2023-01-13T01:57:09;2.03;;;0.57;;
46897;SDS011;32646;50.958;6.258;2023-01-13T01:59:43;1.75;;;0.40;;
46897;SDS011;32646;50.958;6.258;2023-01-13T02:02:10;1.42;;;0.50;;
46897;SDS011;32646;50.958;6.258;2023-01-13T02:04:42;2.05;;;0.28;;
46897;SDS011;32646;50.958;6.258;2023-01-13T02:09:39;2.17;;;0.60;;
46897;SDS011;32646;50.958;6.258;2023-01-13T02:12:06;3.35;;;0.40;;
46897;SDS011;32646;50.958;6.258;2023-01-13T02:14:32;1.38;;;0.30;;
46897;SDS011;32646;50.958;6.258;2023-01-13T02:22:40;3.45;;;0.70;;
46897;SDS011;32646;50.958;6.258;2023-01-13T02:30:55;3.22;;;0.55;;
46897;SDS011;32646;50.958;6.258;2023-01-13T02:36:36;0.13;;;0.13;;
46897;SDS011;32646;50.958;6.258;2023-01-13T02:39:02;0.80;;;0.32;;
46897;SDS011;32646;50.958;6.258;2023-01-13T02:44:12;5.28;;;1.10;;
46897;SDS011;32646;50.958;6.258;2023-01-13T02:46:45;4.10;;;0.52;;
46897;SDS011;32646;50.958;6.258;2023-01-13T02:49:20;1.88;;;0.50;;
46897;SDS011;32646;50.958;6.258;2023-01-13T02:52:11;2.60;;;0.55;;
46897;SDS011;32646;50.958;6.258;2023-01-13T02:54:43;2.53;;;0.60;;
46897;SDS011;32646;50.958;6.258;2023-01-13T02:57:16;6.10;;;0.90;;
46897;SDS011;32646;50.958;6.258;2023-01-13T02:59:44;2.25;;;0.50;;
46897;SDS011;32646;50.958;6.258;2023-01-13T03:02:13;2.33;;;0.52;;
46897;SDS011;32646;50.958;6.258;2023-01-13T03:04:48;2.85;;;0.88;;
46897;SDS011;32646;50.958;6.258;2023-01-13T03:07:32;2.70;;;0.70;;
46897;SDS011;32646;50.958;6.258;2023-01-13T03:20:50;2.10;;;0.68;;
46897;SDS011;32646;50.958;6.258;2023-01-13T03:23:26;3.70;;;0.73;;
46897;SDS011;32646;50.958;6.258;2023-01-13T03:26:02;3.83;;;0.50;;
46897;SDS011;32646;50.958;6.258;2023-01-13T03:28:48;1.05;;;0.30;;
46897;SDS011;32646;50.958;6.258;2023-01-13T03:33:50;2.60;;;0.55;;
46897;SDS011;32646;50.958;6.258;2023-01-13T03:36:21;2.25;;;0.68;;
46897;SDS011;32646;50.958;6.258;2023-01-13T03:38:50;3.50;;;0.75;;
46897;SDS011;32646;50.958;6.258;2023-01-13T03:41:31;1.42;;;0.30;;
46897;SDS011;32646;50.958;6.258;2023-01-13T03:44:13;3.30;;;0.60;;
46897;SDS011;32646;50.958;6.258;2023-01-13T03:46:47;1.88;;;0.50;;
46897;SDS011;32646;50.958;6.258;2023-01-13T03:49:42;2.33;;;0.60;;
46897;SDS011;32646;50.958;6.258;2023-01-13T03:52:15;3.00;;;1.10;;
46897;SDS011;32646;50.958;6.258;2023-01-13T03:54:53;5.60;;;0.80;;
46897;SDS011;32646;50.958;6.258;2023-01-13T03:57:42;2.85;;;0.85;;
46897;SDS011;32646;50.958;6.258;2023-01-13T04:00:18;6.15;;;0.93;;
46897;SDS011;32646;50.958;6.258;2023-01-13T04:07:48;4.43;;;1.63;;
46897;SDS011;32646;50.958;6.258;2023-01-13T04:10:40;4.60;;;0.80;;
46897;SDS011;32646;50.958;6.258;2023-01-13T04:13:22;5.47;;;1.00;;
46897;SDS011;32646;50.958;6.258;2023-01-13T04:20:47;6.72;;;1.13;;
46897;SDS011;32646;50.958;6.258;2023-01-13T04:23:16;8.52;;;1.00;;
46897;SDS011;32646;50.958;6.258;2023-01-13T04:25:43;2.47;;;0.70;;
46897;SDS011;32646;50.958;6.258;2023-01-13T04:28:10;3.05;;;0.52;;
46897;SDS011;32646;50.958;6.258;2023-01-13T04:30:38;11.90;;;1.38;;
46897;SDS011;32646;50.958;6.258;2023-01-13T04:33:05;5.72;;;0.95;;
46897;SDS011;32646;50.958;6.258;2023-01-13T04:35:32;6.30;;;0.98;;
46897;SDS011;32646;50.958;6.258;2023-01-13T04:38:00;8.60;;;0.98;;
46897;SDS011;32646;50.958;6.258;2023-01-13T04:40:27;4.82;;;0.75;;
46897;SDS011;32646;50.958;6.258;2023-01-13T04:42:54;9.60;;;1.00;;
46897;SDS011;32646;50.958;6.258;2023-01-13T04:45:20;6.78;;;1.55;;
46897;SDS011;32646;50.958;6.258;2023-01-13T04:47:47;3.65;;;0.75;;
46897;SDS011;32646;50.958;6.258;2023-01-13T04:50:14;3.97;;;0.82;;
46897;SDS011;32646;50.958;6.258;2023-01-13T04:52:41;4.53;;;0.63;;
46897;SDS011;32646;50.958;6.258;2023-01-13T04:55:07;8.32;;;0.82;;
46897;SDS011;32646;50.958;6.258;2023-01-13T04:57:35;2.97;;;1.00;;
46897;SDS011;32646;50.958;6.258;2023-01-13T05:00:02;2.75;;;0.50;;
46897;SDS011;32646;50.958;6.258;2023-01-13T05:02:33;11.80;;;1.48;;
46897;SDS011;32646;50.958;6.258;2023-01-13T05:04:59;7.63;;;1.42;;
46897;SDS011;32646;50.958;6.258;2023-01-13T05:07:26;3.47;;;0.90;;
46897;SDS011;32646;50.958;6.258;2023-01-13T05:09:53;5.53;;;0.93;;
46897;SDS011;32646;50.958;6.258;2023-01-13T05:12:19;7.30;;;0.95;;
46897;SDS011;32646;50.958;6.258;2023-01-13T05:14:46;4.00;;;0.80;;
46897;SDS011;32646;50.958;6.258;2023-01-13T05:17:16;5.47;;;0.90;;
46897;SDS011;32646;50.958;6.258;2023-01-13T05:19:47;1.02;;;0.28;;
46897;SDS011;32646;50.958;6.258;2023-01-13T05:22:14;6.60;;;1.27;;
46897;SDS011;32646;50.958;6.258;2023-01-13T05:24:41;4.05;;;0.50;;
46897;SDS011;32646;50.958;6.258;2023-01-13T05:27:07;3.05;;;0.63;;
46897;SDS011;32646;50.958;6.258;2023-01-13T05:29:34;5.32;;;0.90;;
46897;SDS011;32646;50.958;6.258;2023-01-13T05:32:01;10.07;;;1.20;;
46897;SDS011;32646;50.958;6.258;2023-01-13T05:34:27;3.85;;;1.23;;
46897;SDS011;32646;50.958;6.258;2023-01-13T05:36:54;6.38;;;1.05;;
46897;SDS011;32646;50.958;6.258;2023-01-13T05:39:20;5.20;;;0.57;;
46897;SDS011;32646;50.958;6.258;2023-01-13T05:41:48;3.95;;;0.63;;
46897;SDS011;32646;50.958;6.258;2023-01-13T05:44:15;2.58;;;0.57;;
46897;SDS011;32646;50.958;6.258;2023-01-13T05:46:41;7.13;;;0.70;;
46897;SDS011;32646;50.958;6.258;2023-01-13T05:49:08;3.05;;;0.77;;
46897;SDS011;32646;50.958;6.258;2023-01-13T05:51:34;5.90;;;1.08;;
46897;SDS011;32646;50.958;6.258;2023-01-13T05:54:01;2.40;;;0.70;;
46897;SDS011;32646;50.958;6.258;2023-01-13T05:56:27;1.70;;;0.60;;
46897;SDS011;32646;50.958;6.258;2023-01-13T05:58:54;3.83;;;1.25;;
46897;SDS011;32646;50.958;6.258;2023-01-13T06:01:20;2.35;;;0.90;;
46897;SDS011;32646;50.958;6.258;2023-01-13T06:03:47;4.20;;;0.70;;
46897;SDS011;32646;50.958;6.258;2023-01-13T06:06:13;5.38;;;0.93;;
46897;SDS011;32646;50.958;6.258;2023-01-13T06:08:40;3.17;;;0.77;;
46897;SDS011;32646;50.958;6.258;2023-01-13T06:11:06;2.85;;;0.50;;
46897;SDS011;32646;50.958;6.258;2023-01-13T06:13:33;3.50;;;0.75;;
46897;SDS011;32646;50.958;6.258;2023-01-13T06:15:59;6.05;;;0.70;;
46897;SDS011;32646;50.958;6.258;2023-01-13T06:18:26;4.57;;;0.98;;
46897;SDS011;32646;50.958;6.258;2023-01-13T06:20:53;5.28;;;0.85;;
46897;SDS011;32646;50.958;6.258;2023-01-13T06:23:20;3.38;;;1.00;;
46897;SDS011;32646;50.958;6.258;2023-01-13T06:28:57;2.75;;;0.63;;
46897;SDS011;32646;50.958;6.258;2023-01-13T06:31:24;6.20;;;0.90;;
46897;SDS011;32646;50.958;6.258;2023-01-13T06:33:52;4.70;;;0.65;;
46897;SDS011;32646;50.958;6.258;2023-01-13T06:36:24;3.42;;;0.70;;
46897;SDS011;32646;50.958;6.258;2023-01-13T06:38:56;4.20;;;0.80;;
46897;SDS011;32646;50.958;6.258;2023-01-13T06:41:25;6.25;;;0.70;;
46897;SDS011;32646;50.958;6.258;2023-01-13T06:43:53;7.15;;;1.25;;
46897;SDS011;32646;50.958;6.258;2023-01-13T06:46:20;4.68;;;0.70;;
46897;SDS011;32646;50.958;6.258;2023-01-13T06:48:47;3.70;;;0.60;;
46897;SDS011;32646;50.958;6.258;2023-01-13T06:51:13;2.33;;;0.70;;
46897;SDS011;32646;50.958;6.258;2023-01-13T06:53:40;3.75;;;1.00;;
46897;SDS011;32646;50.958;6.258;2023-01-13T06:56:06;4.72;;;0.50;;
46897;SDS011;32646;50.958;6.258;2023-01-13T06:58:33;4.93;;;0.68;;
46897;SDS011;32646;50.958;6.258;2023-01-13T07:00:59;3.65;;;0.57;;
46897;SDS011;32646;50.958;6.258;2023-01-13T07:03:26;5.55;;;0.88;;
46897;SDS011;32646;50.958;6.258;2023-01-13T07:05:53;4.13;;;0.77;;
46897;SDS011;32646;50.958;6.258;2023-01-13T07:08:21;1.23;;;0.50;;
46897;SDS011;32646;50.958;6.258;2023-01-13T07:10:48;4.00;;;0.47;;
46897;SDS011;32646;50.958;6.258;2023-01-13T07:13:15;3.28;;;1.00;;
46897;SDS011;32646;50.958;6.258;2023-01-13T07:15:41;4.70;;;0.73;;
46897;SDS011;32646;50.958;6.258;2023-01-13T07:18:18;1.50;;;0.52;;
46897;SDS011;32646;50.958;6.258;2023-01-13T07:20:50;2.35;;;0.60;;
46897;SDS011;32646;50.958;6.258;2023-01-13T07:23:17;2.45;;;0.77;;
46897;SDS011;32646;50.958;6.258;2023-01-13T07:25:44;2.10;;;0.50;;
46897;SDS011;32646;50.958;6.258;2023-01-13T07:28:10;0.95;;;0.68;;
46897;SDS011;32646;50.958;6.258;2023-01-13T07:30:37;3.70;;;0.75;;
46897;SDS011;32646;50.958;6.258;2023-01-13T07:33:03;4.18;;;0.75;;
46897;SDS011;32646;50.958;6.258;2023-01-13T07:35:30;7.05;;;1.15;;
46897;SDS011;32646;50.958;6.258;2023-01-13T07:37:57;1.80;;;0.55;;
46897;SDS011;32646;50.958;6.258;2023-01-13T07:40:23;4.43;;;0.82;;
46897;SDS011;32646;50.958;6.258;2023-01-13T07:42:49;3.88;;;0.85;;
46897;SDS011;32646;50.958;6.258;2023-01-13T07:45:16;4.25;;;0.95;;
46897;SDS011;32646;50.958;6.258;2023-01-13T07:47:43;2.70;;;1.08;;
46897;SDS011;32646;50.958;6.258;2023-01-13T07:50:09;3.17;;;0.75;;
46897;SDS011;32646;50.958;6.258;2023-01-13T07:52:36;5.00;;;0.90;;
46897;SDS011;32646;50.958;6.258;2023-01-13T07:55:03;4.70;;;1.05;;
46897;SDS011;32646;50.958;6.258;2023-01-13T07:57:29;2.95;;;1.05;;
46897;SDS011;32646;50.958;6.258;2023-01-13T07:59:56;3.55;;;0.60;;
46897;SDS011;32646;50.958;6.258;2023-01-13T08:02:22;15.73;;;1.88;;
46897;SDS011;32646;50.958;6.258;2023-01-13T08:04:49;4.25;;;0.82;;
46897;SDS011;32646;50.958;6.258;2023-01-13T08:07:16;6.38;;;1.67;;
46897;SDS011;32646;50.958;6.258;2023-01-13T08:09:42;8.43;;;1.27;;
46897;SDS011;32646;50.958;6.258;2023-01-13T08:12:09;6.13;;;1.08;;
46897;SDS011;32646;50.958;6.258;2023-01-13T08:14:35;8.32;;;1.35;;
46897;SDS011;32646;50.958;6.258;2023-01-13T08:17:02;7.65;;;1.67;;
46897;SDS011;32646;50.958;6.258;2023-01-13T08:19:28;6.22;;;1.02;;
46897;SDS011;32646;50.958;6.258;2023-01-13T08:21:55;5.97;;;1.02;;
46897;SDS011;32646;50.958;6.258;2023-01-13T08:24:22;8.02;;;1.20;;
46897;SDS011;32646;50.958;6.258;2023-01-13T08:26:48;6.85;;;1.10;;
46897;SDS011;32646;50.958;6.258;2023-01-13T08:29:15;4.70;;;0.93;;
46897;SDS011;32646;50.958;6.258;2023-01-13T08:31:42;4.85;;;1.08;;
46897;SDS011;32646;50.958;6.258;2023-01-13T08:34:09;4.40;;;0.90;;
46897;SDS011;32646;50.958;6.258;2023-01-13T08:36:35;15.35;;;2.38;;
46897;SDS011;32646;50.958;6.258;2023-01-13T08:39:02;9.52;;;1.88;;
46897;SDS011;32646;50.958;6.258;2023-01-13T08:41:28;5.55;;;1.17;;
46897;SDS011;32646;50.958;6.258;2023-01-13T08:43:55;14.10;;;1.73;;
46897;SDS011;32646;50.958;6.258;2023-01-13T08:46:21;7.55;;;1.15;;
46897;SDS011;32646;50.958;6.258;2023-01-13T08:48:48;6.70;;;1.63;;
46897;SDS011;32646;50.958;6.258;2023-01-13T08:51:14;4.60;;;1.05;;
46897;SDS011;32646;50.958;6.258;2023-01-13T08:53:41;14.40;;;2.22;;
46897;SDS011;32646;50.958;6.258;2023-01-13T08:56:07;9.05;;;1.50;;
46897;SDS011;32646;50.958;6.258;2023-01-13T08:58:34;6.60;;;1.27;;
46897;SDS011;32646;50.958;6.258;2023-01-13T09:01:04;4.93;;;1.15;;
46897;SDS011;32646;50.958;6.258;2023-01-13T09:03:32;9.63;;;1.58;;
46897;SDS011;32646;50.958;6.258;2023-01-13T09:05:59;7.55;;;1.05;;
46897;SDS011;32646;50.958;6.258;2023-01-13T09:08:25;9.23;;;1.73;;
46897;SDS011;32646;50.958;6.258;2023-01-13T09:10:52;4.22;;;0.63;;
46897;SDS011;32646;50.958;6.258;2023-01-13T09:13:18;9.57;;;1.33;;
46897;SDS011;32646;50.958;6.258;2023-01-13T09:15:45;6.65;;;1.27;;
46897;SDS011;32646;50.958;6.258;2023-01-13T09:18:12;8.73;;;1.92;;
46897;SDS011;32646;50.958;6.258;2023-01-13T09:20:38;9.90;;;1.23;;
46897;SDS011;32646;50.958;6.258;2023-01-13T09:23:05;8.55;;;1.70;;
46897;SDS011;32646;50.958;6.258;2023-01-13T09:25:35;6.75;;;1.60;;
46897;SDS011;32646;50.958;6.258;2023-01-13T09:28:02;4.47;;;1.33;;
46897;SDS011;32646;50.958;6.258;2023-01-13T09:30:29;10.00;;;1.85;;
46897;SDS011;32646;50.958;6.258;2023-01-13T09:32:58;7.47;;;1.30;;
46897;SDS011;32646;50.958;6.258;2023-01-13T09:35:25;6.30;;;1.30;;
46897;SDS011;32646;50.958;6.258;2023-01-13T09:37:51;9.48;;;2.08;;
46897;SDS011;32646;50.958;6.258;2023-01-13T09:40:19;9.30;;;1.40;;
46897;SDS011;32646;50.958;6.258;2023-01-13T09:42:59;8.38;;;2.03;;
46897;SDS011;32646;50.958;6.258;2023-01-13T09:45:36;11.07;;;1.38;;
46897;SDS011;32646;50.958;6.258;2023-01-13T09:48:12;5.03;;;1.17;;
46897;SDS011;32646;50.958;6.258;2023-01-13T09:51:11;4.10;;;1.10;;
46897;SDS011;32646;50.958;6.258;2023-01-13T09:54:02;2.63;;;0.95;;
46897;SDS011;32646;50.958;6.258;2023-01-13T09:56:36;6.80;;;1.05;;
46897;SDS011;32646;50.958;6.258;2023-01-13T09:59:02;5.47;;;1.30;;
46897;SDS011;32646;50.958;6.258;2023-01-13T10:01:34;10.05;;;1.80;;
46897;SDS011;32646;50.958;6.258;2023-01-13T10:04:11;4.55;;;1.10;;
46897;SDS011;32646;50.958;6.258;2023-01-13T10:06:41;5.68;;;1.10;;
46897;SDS011;32646;50.958;6.258;2023-01-13T10:09:20;6.47;;;0.88;;
46897;SDS011;32646;50.958;6.258;2023-01-13T10:11:54;4.95;;;1.50;;
46897;SDS011;32646;50.958;6.258;2023-01-13T10:14:33;7.00;;;1.25;;
46897;SDS011;32646;50.958;6.258;2023-01-13T10:23:17;8.52;;;1.50;;
46897;SDS011;32646;50.958;6.258;2023-01-13T10:28:41;8.55;;;1.13;;
46897;SDS011;32646;50.958;6.258;2023-01-13T10:31:16;6.07;;;1.45;;
46897;SDS011;32646;50.958;6.258;2023-01-13T10:33:45;7.15;;;1.23;;
46897;SDS011;32646;50.958;6.258;2023-01-13T10:36:16;7.63;;;1.60;;
46897;SDS011;32646;50.958;6.258;2023-01-13T10:38:44;9.50;;;1.88;;
46897;SDS011;32646;50.958;6.258;2023-01-13T10:43:42;11.88;;;1.48;;
46897;SDS011;32646;50.958;6.258;2023-01-13T10:46:34;9.63;;;1.35;;
46897;SDS011;32646;50.958;6.258;2023-01-13T10:49:23;8.15;;;1.35;;
46897;SDS011;32646;50.958;6.258;2023-01-13T10:51:55;5.35;;;1.30;;
46897;SDS011;32646;50.958;6.258;2023-01-13T10:54:23;11.48;;;1.38;;
46897;SDS011;32646;50.958;6.258;2023-01-13T10:57:11;7.97;;;1.33;;
46897;SDS011;32646;50.958;6.258;2023-01-13T10:59:45;6.10;;;1.27;;
46897;SDS011;32646;50.958;6.258;2023-01-13T11:10:01;6.18;;;1.15;;
46897;SDS011;32646;50.958;6.258;2023-01-13T11:13:02;5.18;;;0.95;;
46897;SDS011;32646;50.958;6.258;2023-01-13T11:15:44;10.98;;;2.33;;
46897;SDS011;32646;50.958;6.258;2023-01-13T11:18:48;8.23;;;1.55;;
46897;SDS011;32646;50.958;6.258;2023-01-13T11:21:21;9.05;;;1.55;;
46897;SDS011;32646;50.958;6.258;2023-01-13T11:24:01;8.43;;;1.35;;
46897;SDS011;32646;50.958;6.258;2023-01-13T11:26:51;9.85;;;1.52;;
46897;SDS011;32646;50.958;6.258;2023-01-13T11:32:11;5.78;;;1.27;;
46897;SDS011;32646;50.958;6.258;2023-01-13T11:34:43;8.45;;;1.35;;
46897;SDS011;32646;50.958;6.258;2023-01-13T11:37:26;6.95;;;0.80;;
46897;SDS011;32646;50.958;6.258;2023-01-13T11:39:59;7.63;;;1.83;;
46897;SDS011;32646;50.958;6.258;2023-01-13T11:42:37;3.72;;;1.05;;
46897;SDS011;32646;50.958;6.258;2023-01-13T11:45:16;4.82;;;1.05;;
46897;SDS011;32646;50.958;6.258;2023-01-13T11:47:56;6.43;;;1.38;;
46897;SDS011;32646;50.958;6.258;2023-01-13T11:53:23;2.50;;;0.70;;
46897;SDS011;32646;50.958;6.258;2023-01-13T11:59:13;8.93;;;1.20;;
46897;SDS011;32646;50.958;6.258;2023-01-13T12:13:43;6.70;;;1.70;;
46897;SDS011;32646;50.958;6.258;2023-01-13T12:16:25;3.20;;;0.98;;
46897;SDS011;32646;50.958;6.258;2023-01-13T12:19:03;9.68;;;1.67;;
46897;SDS011;32646;50.958;6.258;2023-01-13T12:24:48;5.28;;;1.20;;
46897;SDS011;32646;50.958;6.258;2023-01-13T12:27:39;18.60;;;1.80;;
46897;SDS011;32646;50.958;6.258;2023-01-13T12:30:16;4.68;;;0.90;;
46897;SDS011;32646;50.958;6.258;2023-01-13T12:32:47;11.55;;;1.38;;
46897;SDS011;32646;50.958;6.258;2023-01-13T12:38:08;7.03;;;1.35;;
46897;SDS011;32646;50.958;6.258;2023-01-13T12:40:59;10.10;;;1.55;;
46897;SDS011;32646;50.958;6.258;2023-01-13T12:43:53;7.32;;;1.40;;
46897;SDS011;32646;50.958;6.258;2023-01-13T12:51:36;6.93;;;1.33;;
46897;SDS011;32646;50.958;6.258;2023-01-13T12:56:58;4.93;;;1.27;;
46897;SDS011;32646;50.958;6.258;2023-01-13T13:07:08;11.38;;;1.52;;
46897;SDS011;32646;50.958;6.258;2023-01-13T13:09:42;4.38;;;1.23;;
46897;SDS011;32646;50.958;6.258;2023-01-13T13:19:55;8.02;;;2.08;;
46897;SDS011;32646;50.958;6.258;2023-01-13T13:30:10;9.88;;;1.65;;
46897;SDS011;32646;50.958;6.258;2023-01-13T13:32:48;7.53;;;1.88;;
46897;SDS011;32646;50.958;6.258;2023-01-13T13:35:32;9.27;;;1.65;;
46897;SDS011;32646;50.958;6.258;2023-01-13T13:40:54;9.77;;;1.50;;
46897;SDS011;32646;50.958;6.258;2023-01-13T13:43:21;6.40;;;1.13;;
46897;SDS011;32646;50.958;6.258;2023-01-13T13:45:49;5.88;;;1.15;;
46897;SDS011;32646;50.958;6.258;2023-01-13T13:48:17;9.77;;;1.88;;
46897;SDS011;32646;50.958;6.258;2023-01-13T13:50:49;8.30;;;1.52;;
46897;SDS011;32646;50.958;6.258;2023-01-13T13:53:19;7.32;;;1.85;;
46897;SDS011;32646;50.958;6.258;2023-01-13T13:55:50;5.78;;;1.50;;
46897;SDS011;32646;50.958;6.258;2023-01-13T13:58:19;4.57;;;1.23;;
46897;SDS011;32646;50.958;6.258;2023-01-13T14:00:48;5.63;;;1.20;;
46897;SDS011;32646;50.958;6.258;2023-01-13T14:05:56;8.30;;;1.95;;
46897;SDS011;32646;50.958;6.258;2023-01-13T14:08:26;6.03;;;2.00;;
46897;SDS011;32646;50.958;6.258;2023-01-13T14:11:00;9.27;;;2.20;;
46897;SDS011;32646;50.958;6.258;2023-01-13T14:13:27;10.07;;;1.55;;
46897;SDS011;32646;50.958;6.258;2023-01-13T14:15:59;4.93;;;1.45;;
46897;SDS011;32646;50.958;6.258;2023-01-13T14:18:27;5.18;;;1.48;;
46897;SDS011;32646;50.958;6.258;2023-01-13T14:20:59;7.95;;;1.70;;
46897;SDS011;32646;50.958;6.258;2023-01-13T14:23:31;4.25;;;1.25;;
46897;SDS011;32646;50.958;6.258;2023-01-13T14:26:02;10.82;;;1.63;;
46897;SDS011;32646;50.958;6.258;2023-01-13T14:28:37;12.68;;;1.70;;
46897;SDS011;32646;50.958;6.258;2023-01-13T14:31:05;5.78;;;1.27;;
46897;SDS011;32646;50.958;6.258;2023-01-13T14:33:35;9.80;;;1.30;;
46897;SDS011;32646;50.958;6.258;2023-01-13T14:38:42;9.77;;;2.63;;
46897;SDS011;32646;50.958;6.258;2023-01-13T14:41:15;9.75;;;1.73;;
46897;SDS011;32646;50.958;6.258;2023-01-13T14:43:46;12.05;;;2.55;;
46897;SDS011;32646;50.958;6.258;2023-01-13T14:46:14;13.95;;;1.60;;
46897;SDS011;32646;50.958;6.258;2023-01-13T14:48:41;14.98;;;2.53;;
46897;SDS011;32646;50.958;6.258;2023-01-13T14:51:09;7.32;;;1.60;;
46897;SDS011;32646;50.958;6.258;2023-01-13T14:53:38;11.35;;;2.08;;
46897;SDS011;32646;50.958;6.258;2023-01-13T15:01:58;6.10;;;1.45;;
46897;SDS011;32646;50.958;6.258;2023-01-13T15:04:32;12.90;;;2.25;;
46897;SDS011;32646;50.958;6.258;2023-01-13T15:06:59;9.18;;;1.35;;
46897;SDS011;32646;50.958;6.258;2023-01-13T15:09:28;12.43;;;1.58;;
46897;SDS011;32646;50.958;6.258;2023-01-13T15:12:12;5.78;;;2.13;;
46897;SDS011;32646;50.958;6.258;2023-01-13T15:14:41;10.30;;;2.33;;
46897;SDS011;32646;50.958;6.258;2023-01-13T15:17:12;9.95;;;2.28;;
46897;SDS011;32646;50.958;6.258;2023-01-13T15:19:41;14.05;;;1.98;;
46897;SDS011;32646;50.958;6.258;2023-01-13T15:22:08;11.73;;;1.52;;
46897;SDS011;32646;50.958;6.258;2023-01-13T15:24:34;13.00;;;1.85;;
46897;SDS011;32646;50.958;6.258;2023-01-13T15:27:01;4.72;;;1.08;;
46897;SDS011;32646;50.958;6.258;2023-01-13T15:29:36;9.40;;;1.70;;
46897;SDS011;32646;50.958;6.258;2023-01-13T15:32:02;7.65;;;1.17;;
46897;SDS011;32646;50.958;6.258;2023-01-13T15:34:29;10.05;;;1.85;;
46897;SDS011;32646;50.958;6.258;2023-01-13T15:36:55;12.65;;;1.83;;
46897;SDS011;32646;50.958;6.258;2023-01-13T15:39:22;5.68;;;1.25;;
46897;SDS011;32646;50.958;6.258;2023-01-13T15:41:48;11.05;;;1.35;;
46897;SDS011;32646;50.958;6.258;2023-01-13T15:44:15;5.63;;;1.42;;
46897;SDS011;32646;50.958;6.258;2023-01-13T15:46:42;4.75;;;1.55;;
46897;SDS011;32646;50.958;6.258;2023-01-13T15:49:16;10.95;;;2.33;;
46897;SDS011;32646;50.958;6.258;2023-01-13T15:51:48;14.13;;;3.90;;
46897;SDS011;32646;50.958;6.258;2023-01-13T15:54:15;10.35;;;3.55;;
46897;SDS011;32646;50.958;6.258;2023-01-13T15:56:41;9.80;;;2.00;;
46897;SDS011;32646;50.958;6.258;2023-01-13T15:59:12;7.22;;;3.00;;
46897;SDS011;32646;50.958;6.258;2023-01-13T16:01:42;13.35;;;2.13;;
46897;SDS011;32646;50.958;6.258;2023-01-13T16:04:09;15.95;;;2.78;;
46897;SDS011;32646;50.958;6.258;2023-01-13T16:06:37;7.88;;;1.33;;
46897;SDS011;32646;50.958;6.258;2023-01-13T16:09:03;8.30;;;1.48;;
46897;SDS011;32646;50.958;6.258;2023-01-13T16:11:30;13.65;;;2.97;;
46897;SDS011;32646;50.958;6.258;2023-01-13T16:13:57;3.72;;;1.30;;
46897;SDS011;32646;50.958;6.258;2023-01-13T16:16:24;10.07;;;1.67;;
46897;SDS011;32646;50.958;6.258;2023-01-13T16:18:53;9.85;;;2.53;;
46897;SDS011;32646;50.958;6.258;2023-01-13T16:21:20;13.23;;;2.78;;
46897;SDS011;32646;50.958;6.258;2023-01-13T16:23:47;6.25;;;1.88;;
46897;SDS011;32646;50.958;6.258;2023-01-13T16:26:21;7.75;;;1.88;;
46897;SDS011;32646;50.958;6.258;2023-01-13T16:28:53;7.45;;;2.35;;
46897;SDS011;32646;50.958;6.258;2023-01-13T16:33:50;11.98;;;2.22;;
46897;SDS011;32646;50.958;6.258;2023-01-13T16:36:17;8.00;;;1.30;;
46897;SDS011;32646;50.958;6.258;2023-01-13T16:38:45;9.63;;;1.23;;
46897;SDS011;32646;50.958;6.258;2023-01-13T16:41:12;10.90;;;2.15;;
46897;SDS011;32646;50.958;6.258;2023-01-13T16:43:39;10.20;;;1.42;;
46897;SDS011;32646;50.958;6.258;2023-01-13T16:46:15;10.38;;;1.50;;
46897;SDS011;32646;50.958;6.258;2023-01-13T16:48:42;6.25;;;1.35;;
46897;SDS011;32646;50.958;6.258;2023-01-13T16:51:09;11.45;;;1.83;;
46897;SDS011;32646;50.958;6.258;2023-01-13T16:53:36;8.88;;;1.75;;
46897;SDS011;32646;50.958;6.258;2023-01-13T16:56:02;7.63;;;2.28;;
46897;SDS011;32646;50.958;6.258;2023-01-13T16:58:35;11.68;;;1.73;;
46897;SDS011;32646;50.958;6.258;2023-01-13T17:01:02;9.50;;;2.65;;
46897;SDS011;32646;50.958;6.258;2023-01-13T17:03:28;12.30;;;1.60;;
46897;SDS011;32646;50.958;6.258;2023-01-13T17:05:55;8.52;;;1.60;;
46897;SDS011;32646;50.958;6.258;2023-01-13T17:08:22;8.95;;;1.17;;
46897;SDS011;32646;50.958;6.258;2023-01-13T17:10:49;5.80;;;2.05;;
46897;SDS011;32646;50.958;6.258;2023-01-13T17:13:15;7.30;;;1.30;;
46897;SDS011;32646;50.958;6.258;2023-01-13T17:15:43;11.65;;;1.50;;
46897;SDS011;32646;50.958;6.258;2023-01-13T17:18:10;11.70;;;1.67;;
46897;SDS011;32646;50.958;6.258;2023-01-13T17:20:36;13.68;;;2.00;;
46897;SDS011;32646;50.958;6.258;2023-01-13T17:23:03;10.82;;;1.55;;
46897;SDS011;32646;50.958;6.258;2023-01-13T17:25:29;9.23;;;1.63;;
46897;SDS011;32646;50.958;6.258;2023-01-13T17:27:56;5.80;;;1.17;;